Time;durP1;ratioP1;P1;durP2;ratioP2;P2;SDS_P1;SDS_P2;PMS_P1;PMS_P2;Temp;Humidity;BMP_temperature;BMP_pressure;BME280_temperature;BME280_humidity;BME280_pressure;Samples;Min_cycle;Max_cycle;Signal;HPM_P1;HPM_P2
2023/01/25 00:00:42;;;;;;;16.85;11.80;;;;;;;6.12;71.69;101625.13;12793440;22;96612;-80
2023/01/25 00:05:46;;;;;;;16.77;11.47;;;;;;;5.77;72.08;101623.34;12793246;22;96553;-80
2023/01/25 00:10:51;;;;;;;17.77;12.02;;;;;;;5.85;72.03;101630.31;12793249;22;97123;-80
2023/01/25 00:16:01;;;;;;;17.55;11.88;;;;;;;5.94;72.24;101626.84;12793320;22;96545;-80
2023/01/25 00:21:12;;;;;;;17.73;11.48;;;;;;;5.84;72.76;101631.19;12792949;22;96849;-81
2023/01/25 00:26:16;;;;;;;14.90;10.60;;;;;;;5.80;73.37;101632.06;12793385;22;96599;-80
2023/01/25 00:31:31;;;;;;;17.98;11.30;;;;;;;5.71;73.13;101632.03;12793710;22;96891;-81
2023/01/25 00:36:41;;;;;;;14.65;10.48;;;;;;;5.57;73.98;101628.53;12792729;22;96637;-81
2023/01/25 00:41:44;;;;;;;14.40;9.63;;;;;;;5.52;74.31;101628.50;12792642;22;96513;-80
2023/01/25 00:46:49;;;;;;;15.57;10.70;;;;;;;5.51;74.26;101625.91;12790699;22;96588;-81
2023/01/25 00:51:54;;;;;;;16.02;10.30;;;;;;;5.50;74.48;101621.56;12792211;22;96700;-80
2023/01/25 00:56:57;;;;;;;18.08;11.57;;;;;;;5.48;74.37;101624.13;12794502;22;97137;-81
2023/01/25 01:02:02;;;;;;;17.23;11.13;;;;;;;5.43;74.75;101627.63;12795050;22;96632;-80
2023/01/25 01:07:06;;;;;;;15.88;10.07;;;;;;;5.45;74.74;101628.50;12795038;22;96588;-80
2023/01/25 01:12:09;;;;;;;16.15;10.25;;;;;;;5.43;74.08;101632.84;12795464;22;96642;-80
2023/01/25 01:17:13;;;;;;;14.98;10.65;;;;;;;5.42;74.46;101631.09;12795745;22;97205;-80
2023/01/25 01:22:17;;;;;;;15.13;10.67;;;;;;;5.41;74.39;101629.34;12795784;22;96539;-80
2023/01/25 01:27:20;;;;;;;15.32;10.05;;;;;;;5.34;75.39;101631.09;12794708;22;96645;-80
2023/01/25 01:32:24;;;;;;;16.92;11.18;;;;;;;5.34;75.45;101627.59;12795260;22;96631;-79
2023/01/25 01:37:28;;;;;;;15.60;10.15;;;;;;;5.27;75.90;101631.03;12793913;22;96735;-80
2023/01/25 01:42:31;;;;;;;15.65;10.20;;;;;;;5.27;75.55;101624.09;12795004;22;96594;-80
2023/01/25 01:47:44;;;;;;;14.07;9.93;;;;;;;5.25;75.61;101631.03;12795218;22;96648;-80
2023/01/25 01:52:48;;;;;;;16.45;10.27;;;;;;;5.24;75.90;101631.91;12794978;22;96596;-80
2023/01/25 01:57:56;;;;;;;17.58;11.65;;;;;;;5.28;75.44;101632.78;12794790;22;96560;-79
2023/01/25 02:03:01;;;;;;;17.67;11.45;;;;;;;5.20;76.33;101644.94;12795236;22;96572;-79
2023/01/25 02:08:06;;;;;;;16.33;11.57;;;;;;;5.20;76.08;101642.31;12794856;22;96771;-80
2023/01/25 02:13:10;;;;;;;16.20;11.43;;;;;;;5.19;75.73;101656.25;12795699;22;96680;-80
2023/01/25 02:18:16;;;;;;;16.73;11.23;;;;;;;5.14;76.65;101653.59;12794442;22;96817;-80
2023/01/25 02:23:26;;;;;;;18.30;12.50;;;;;;;5.19;75.88;101657.09;12794442;22;96688;-80
2023/01/25 02:28:35;;;;;;;18.55;12.10;;;;;;;5.19;76.37;101653.63;12793289;22;96617;-80
2023/01/25 02:33:38;;;;;;;18.90;12.20;;;;;;;5.14;76.05;101660.56;12794550;22;96568;-80
2023/01/25 02:38:45;;;;;;;16.67;11.10;;;;;;;5.19;76.30;101661.47;12794625;22;96571;-80
2023/01/25 02:43:50;;;;;;;17.75;11.20;;;;;;;5.17;76.29;101664.03;12794772;22;96607;-80
2023/01/25 02:48:54;;;;;;;16.15;9.98;;;;;;;5.24;75.78;101667.56;12794147;22;96545;-79
2023/01/25 02:53:57;;;;;;;14.23;9.55;;;;;;;5.24;75.86;101668.44;12793721;22;96518;-80
2023/01/25 02:59:04;;;;;;;12.90;9.32;;;;;;;5.25;75.45;101661.47;12794432;22;97090;-80
2023/01/25 03:04:08;;;;;;;14.23;8.95;;;;;;;5.33;75.23;101664.97;12795229;22;97181;-80
2023/01/25 03:09:12;;;;;;;13.02;8.63;;;;;;;5.31;74.57;101662.38;12794052;22;97019;-80
2023/01/25 03:14:17;;;;;;;12.35;8.63;;;;;;;5.43;73.50;101661.56;12794708;22;96599;-80
2023/01/25 03:19:20;;;;;;;11.80;7.97;;;;;;;5.44;74.01;101669.41;12792206;22;96737;-80
2023/01/25 03:24:23;;;;;;;10.48;7.32;;;;;;;5.47;73.75;101665.91;12793877;22;96563;-80
2023/01/25 03:29:28;;;;;;;11.23;7.30;;;;;;;5.46;73.60;101670.28;12794417;22;96977;-80
2023/01/25 03:34:31;;;;;;;11.10;7.37;;;;;;;5.46;72.95;101664.19;12794493;22;96531;-80
2023/01/25 03:39:34;;;;;;;9.88;6.95;;;;;;;5.51;72.37;101663.34;12793427;22;96591;-80
2023/01/25 03:44:38;;;;;;;12.68;7.18;;;;;;;5.45;72.74;101659.84;12794572;22;96851;-80
2023/01/25 03:49:42;;;;;;;10.20;7.30;;;;;;;5.57;72.45;101665.09;12793350;22;96580;-80
2023/01/25 03:54:46;;;;;;;10.20;6.40;;;;;;;5.49;72.04;101658.97;12794553;22;97134;-80
2023/01/25 03:59:51;;;;;;;11.73;7.03;;;;;;;5.47;72.52;101663.28;12793579;22;96558;-80
2023/01/25 04:04:54;;;;;;;10.03;6.80;;;;;;;5.43;72.60;101659.81;12793441;22;97132;-80
2023/01/25 04:09:57;;;;;;;9.10;6.65;;;;;;;5.34;72.26;101662.41;12792524;22;96539;-80
2023/01/25 04:15:02;;;;;;;8.23;5.97;;;;;;;5.37;72.60;101656.31;12792822;22;97263;-80
2023/01/25 04:20:06;;;;;;;9.97;6.20;;;;;;;5.32;72.94;101658.91;12793158;22;96906;-80
2023/01/25 04:25:10;;;;;;;10.13;7.20;;;;;;;5.31;73.37;101669.34;12793049;22;96569;-80
2023/01/25 04:30:15;;;;;;;10.05;6.53;;;;;;;5.28;73.39;101671.91;12793313;22;96738;-80
2023/01/25 04:35:19;;;;;;;8.60;5.63;;;;;;;5.32;72.61;101679.78;12795621;22;96576;-80
2023/01/25 04:40:22;;;;;;;7.30;5.55;;;;;;;5.38;72.00;101687.63;12795700;22;96691;-80
2023/01/25 04:45:27;;;;;;;6.95;4.90;;;;;;;5.48;71.24;101693.78;12796374;22;96561;-80
2023/01/25 04:50:31;;;;;;;7.32;4.90;;;;;;;5.48;72.17;101699.00;12795186;22;96517;-80
2023/01/25 04:55:34;;;;;;;7.65;5.03;;;;;;;5.45;71.93;101697.22;12795873;22;96613;-80
2023/01/25 05:00:38;;;;;;;7.85;4.35;;;;;;;5.50;71.27;101702.50;12794427;22;96704;-80
2023/01/25 05:05:46;;;;;;;6.40;3.97;;;;;;;5.57;69.85;101701.66;12795765;22;97043;-81
2023/01/25 05:10:49;;;;;;;7.50;3.90;;;;;;;5.54;70.59;101699.00;12795256;22;96537;-81
2023/01/25 05:15:56;;;;;;;5.90;3.95;;;;;;;5.45;71.17;101706.81;12794645;22;97042;-81
2023/01/25 05:20:59;;;;;;;6.00;4.32;;;;;;;5.48;71.01;101704.22;12795297;22;96585;-80
2023/01/25 05:31:35;;;;;;;5.55;3.85;;;;;;;5.40;71.33;101716.34;12642585;22;96830;-80
2023/01/25 05:36:39;;;;;;;5.53;3.77;;;;;;;5.37;70.87;101716.34;12795905;22;96768;-80
2023/01/25 05:41:42;;;;;;;7.50;3.83;;;;;;;5.35;71.25;101723.28;12794998;22;96583;-80
2023/01/25 05:46:47;;;;;;;5.82;3.80;;;;;;;5.41;69.81;101713.78;12795170;22;96667;-80
2023/01/25 05:51:50;;;;;;;5.47;3.70;;;;;;;5.42;69.84;101712.88;12793613;22;96566;-81
2023/01/25 05:56:53;;;;;;;5.03;3.30;;;;;;;5.44;70.46;101720.72;12794958;22;97391;-80
2023/01/25 06:01:57;;;;;;;5.32;3.15;;;;;;;5.41;70.46;101708.53;12794768;22;96745;-81
2023/01/25 06:07:01;;;;;;;6.13;3.20;;;;;;;5.43;69.40;101714.63;12794835;22;96406;-80
2023/01/25 06:12:05;;;;;;;3.45;2.60;;;;;;;5.45;70.08;101719.88;12794683;22;96610;-80
2023/01/25 06:17:10;;;;;;;4.43;2.90;;;;;;;5.34;70.21;101721.56;12794631;22;96495;-81
2023/01/25 06:22:13;;;;;;;5.20;2.90;;;;;;;5.31;70.33;101729.38;12794551;22;96538;-80
2023/01/25 06:27:16;;;;;;;4.57;2.80;;;;;;;5.39;69.19;101728.53;12795691;22;96626;-80
2023/01/25 06:32:21;;;;;;;4.53;3.10;;;;;;;5.35;69.37;101733.72;12795388;22;96745;-80
2023/01/25 06:37:24;;;;;;;3.87;2.87;;;;;;;5.38;68.54;101747.66;12794620;22;97622;-80
2023/01/25 06:42:27;;;;;;;4.90;2.88;;;;;;;5.38;68.88;101752.88;12792984;22;96592;-80
2023/01/25 06:47:31;;;;;;;4.13;2.95;;;;;;;5.37;68.66;101751.16;12794697;22;96771;-81
2023/01/25 06:52:35;;;;;;;5.13;2.67;;;;;;;5.40;68.20;101758.09;12794079;22;96703;-81
2023/01/25 06:57:38;;;;;;;4.13;2.58;;;;;;;5.39;68.00;101766.81;12794480;22;96966;-80
2023/01/25 07:02:43;;;;;;;4.68;2.45;;;;;;;5.37;67.98;101776.38;12794049;22;96610;-80
2023/01/25 07:07:47;;;;;;;4.60;3.13;;;;;;;5.33;67.93;101778.09;12794159;22;96639;-81
2023/01/25 07:12:50;;;;;;;4.25;2.97;;;;;;;5.38;68.21;101776.38;12794276;22;96577;-80
2023/01/25 07:17:55;;;;;;;3.28;2.60;;;;;;;5.32;67.25;101780.69;12795419;22;97393;-80
2023/01/25 07:23:07;;;;;;;4.53;2.75;;;;;;;5.35;67.22;101781.59;12793712;22;96838;-80
2023/01/25 07:28:11;;;;;;;5.28;2.75;;;;;;;5.32;67.97;101789.41;12793571;22;96760;-80
2023/01/25 07:33:15;;;;;;;4.22;2.70;;;;;;;5.31;67.64;101795.47;12792540;22;96916;-80
2023/01/25 07:38:18;;;;;;;4.47;2.57;;;;;;;5.32;66.81;101797.22;12793926;22;97048;-80
2023/01/25 07:43:21;;;;;;;4.13;2.60;;;;;;;5.40;67.26;101798.13;12794170;22;96898;-80
2023/01/25 07:48:26;;;;;;;3.35;2.45;;;;;;;5.35;67.31;101807.69;12793920;22;96639;-80
2023/01/25 07:53:29;;;;;;;3.17;2.40;;;;;;;5.35;66.79;101805.06;12793297;22;96488;-80
2023/01/25 07:58:32;;;;;;;4.40;2.70;;;;;;;5.33;66.94;101806.78;12793559;22;96512;-80
2023/01/25 08:03:38;;;;;;;4.18;2.50;;;;;;;5.29;67.08;101820.72;12792838;22;96627;-80
2023/01/25 08:08:43;;;;;;;4.30;2.60;;;;;;;5.26;67.33;101827.63;12794190;22;96521;-80
2023/01/25 08:13:48;;;;;;;4.22;2.85;;;;;;;5.24;67.19;101834.59;12793629;22;96629;-80
2023/01/25 08:18:54;;;;;;;4.28;2.95;;;;;;;5.24;67.65;101843.25;12792586;22;96771;-80
2023/01/25 08:23:58;;;;;;;4.68;3.10;;;;;;;5.21;67.84;101856.28;12791877;22;96593;-80
2023/01/25 08:29:02;;;;;;;5.13;3.13;;;;;;;5.35;67.03;101865.09;12793145;22;96870;-80
2023/01/25 08:34:07;;;;;;;4.13;3.00;;;;;;;5.37;66.66;101862.50;12792970;22;96642;-80
2023/01/25 08:39:11;;;;;;;;;;;;;;;5.33;66.76;101877.25;12793989;22;96849;-81
2023/01/25 08:44:14;;;;;;;4.13;2.67;;;;;;;5.39;66.32;101879.94;12793128;22;97190;-81
2023/01/25 08:49:19;;;;;;;4.72;3.10;;;;;;;5.54;65.60;101884.38;12791985;22;96653;-80
2023/01/25 08:54:23;;;;;;;5.10;3.40;;;;;;;5.75;65.62;101891.47;12793266;22;97029;-80
2023/01/25 08:59:26;;;;;;;6.68;3.55;;;;;;;5.94;65.03;101898.53;12793522;22;96691;-81
2023/01/25 09:04:31;;;;;;;7.28;3.33;;;;;;;6.10;65.02;101908.22;12792100;22;96525;-81
2023/01/25 09:09:34;;;;;;;4.97;3.33;;;;;;;6.15;64.78;101909.97;12792271;22;96652;-81
2023/01/25 09:14:39;;;;;;;5.40;3.80;;;;;;;6.26;64.29;101902.19;12791013;22;97034;-81
2023/01/25 09:19:44;;;;;;;4.73;3.23;;;;;;;6.48;63.43;101898.78;12794586;22;96731;-81
2023/01/25 09:24:50;;;;;;;3.83;2.63;;;;;;;6.42;63.13;101904.00;12795113;22;96711;-81
2023/01/25 09:29:54;;;;;;;8.27;4.13;;;;;;;6.50;62.45;101908.38;12794889;22;97183;-81
2023/01/25 09:35:07;;;;;;;6.47;4.30;;;;;;;6.63;61.76;101911.88;12795050;22;96605;-81
2023/01/25 09:40:19;;;;;;;9.43;4.93;;;;;;;6.72;62.54;101915.41;12795616;22;96596;-82
2023/01/25 09:45:30;;;;;;;8.38;4.90;;;;;;;6.68;60.93;101920.63;12795387;22;96514;-81
2023/01/25 09:50:38;;;;;;;9.00;4.93;;;;;;;6.99;61.80;101916.38;12795655;22;96429;-81
2023/01/25 09:55:42;;;;;;;9.20;5.40;;;;;;;7.06;61.55;101928.59;12794953;22;97080;-80
2023/01/25 10:00:50;;;;;;;7.70;4.57;;;;;;;7.12;61.09;101923.34;12794907;22;96667;-81
2023/01/25 10:05:59;;;;;;;7.00;4.28;;;;;;;7.22;61.13;101919.88;12793389;22;96627;-81
2023/01/25 10:11:13;;;;;;;6.35;3.85;;;;;;;7.24;60.62;101925.97;12794567;22;97111;-80
2023/01/25 10:16:23;;;;;;;6.85;4.70;;;;;;;7.37;60.36;101925.13;12794472;22;97003;-81
2023/01/25 10:21:37;;;;;;;6.25;4.32;;;;;;;7.46;60.03;101926.00;12794687;22;96517;-81
2023/01/25 10:26:45;;;;;;;7.05;4.65;;;;;;;7.56;60.24;101921.63;12793702;22;96583;-81
2023/01/25 10:31:52;;;;;;;8.52;4.75;;;;;;;7.62;59.72;101924.22;12794986;22;96694;-81
2023/01/25 10:36:58;;;;;;;6.57;3.95;;;;;;;7.65;58.87;101925.09;12794438;22;97302;-81
2023/01/25 10:42:06;;;;;;;8.20;4.13;;;;;;;7.69;58.19;101913.75;12795528;22;96556;-82
2023/01/25 10:47:21;;;;;;;6.07;4.03;;;;;;;7.77;57.73;101922.47;12794220;22;96630;-80
2023/01/25 10:52:28;;;;;;;5.50;3.50;;;;;;;7.98;57.90;101929.41;12794363;22;96811;-81
2023/01/25 10:57:31;;;;;;;5.80;3.70;;;;;;;7.82;56.81;101925.09;12793016;22;96616;-81
2023/01/25 11:02:43;;;;;;;4.65;3.50;;;;;;;7.95;57.39;101914.56;12794228;22;96568;-81
2023/01/25 11:07:49;;;;;;;8.65;4.65;;;;;;;7.92;57.46;101918.94;12793950;22;96595;-81
2023/01/25 11:13:18;;;;;;;6.10;3.97;;;;;;;8.03;57.73;101926.78;12794379;22;96506;-80
2023/01/25 11:18:24;;;;;;;8.48;4.18;;;;;;;8.15;56.69;101913.63;12794374;22;96496;-82
2023/01/25 11:23:28;;;;;;;6.32;3.80;;;;;;;8.21;56.37;101918.84;12793715;22;96777;-81
2023/01/25 11:28:31;;;;;;;5.47;3.60;;;;;;;8.30;56.60;101917.09;12794634;22;97250;-82
2023/01/25 11:33:34;;;;;;;7.43;3.95;;;;;;;8.58;56.87;101913.47;12794888;22;96619;-82
2023/01/25 11:38:48;;;;;;;5.18;3.72;;;;;;;8.49;56.27;101907.38;12793804;22;96554;-81
2023/01/25 11:44:19;;;;;;;5.55;3.65;;;;;;;8.48;55.68;101888.13;12793944;22;96853;-82
2023/01/25 11:49:34;;;;;;;5.25;3.58;;;;;;;8.55;55.32;101892.47;12792445;22;96572;-81
2023/01/25 11:54:49;;;;;;;5.57;3.88;;;;;;;8.66;55.20;101874.91;12793668;22;96537;-81
2023/01/25 12:00:09;;;;;;;5.63;3.40;;;;;;;8.77;54.89;101870.50;12793526;22;96534;-81
2023/01/25 12:05:28;;;;;;;5.28;3.50;;;;;;;8.62;54.37;101864.47;12793243;22;96501;-81
2023/01/25 12:10:44;;;;;;;5.60;4.07;;;;;;;8.81;54.67;101859.06;12793995;22;96783;-81
2023/01/25 12:16:11;;;;;;;6.75;4.22;;;;;;;9.01;54.84;101859.81;12793103;22;96574;-82
2023/01/25 12:21:27;;;;;;;6.07;4.32;;;;;;;9.00;54.68;101847.53;12793068;22;96612;-82
2023/01/25 12:26:48;;;;;;;5.65;3.78;;;;;;;8.97;54.13;101838.81;12793591;22;96561;-82
2023/01/25 12:31:57;;;;;;;5.40;3.75;;;;;;;9.19;54.07;101822.00;12792981;22;96623;-81
2023/01/25 12:37:06;;;;;;;5.72;3.80;;;;;;;9.29;54.02;101825.47;12792949;22;96864;-82
2023/01/25 12:42:18;;;;;;;6.50;4.20;;;;;;;9.39;53.71;101813.97;12791436;22;96648;-81
2023/01/25 12:47:32;;;;;;;5.03;3.70;;;;;;;9.40;53.17;101800.81;12792507;22;96459;-82
2023/01/25 12:52:39;;;;;;;5.15;3.55;;;;;;;9.49;52.89;101786.72;12794558;22;96768;-81
2023/01/25 12:57:53;;;;;;;5.00;3.53;;;;;;;9.43;52.62;101778.91;12795395;22;96789;-82
2023/01/25 13:03:28;;;;;;;5.97;4.00;;;;;;;9.45;52.03;101771.88;12795487;22;96624;-81
2023/01/25 13:08:42;;;;;;;6.00;4.30;;;;;;;9.56;52.36;101765.63;12795274;22;96779;-82
2023/01/25 13:13:47;;;;;;;5.78;4.28;;;;;;;9.82;51.86;101754.78;12795415;22;97002;-81
2023/01/25 13:18:50;;;;;;;6.38;4.10;;;;;;;9.88;52.46;101752.09;12794849;22;96692;-81
2023/01/25 13:24:22;;;;;;;6.45;4.25;;;;;;;9.99;51.99;101739.66;12795354;22;96894;-82
2023/01/25 13:29:46;;;;;;;6.18;4.63;;;;;;;10.05;51.90;101731.69;12790960;22;96664;-81
2023/01/25 13:34:59;;;;;;;5.57;4.45;;;;;;;10.21;51.87;101741.97;12793480;22;96815;-81
2023/01/25 13:40:03;;;;;;;6.13;4.38;;;;;;;10.26;50.99;101734.03;12794876;22;96539;-82
2023/01/25 13:45:18;;;;;;;5.38;3.85;;;;;;;10.63;50.26;101718.50;12794938;22;96674;-82
2023/01/25 13:50:25;;;;;;;4.95;3.58;;;;;;;11.86;47.10;101715.28;12794427;22;96842;-82
2023/01/25 13:55:37;;;;;;;4.88;3.78;;;;;;;13.12;45.00;101711.34;12795243;22;96717;-82
2023/01/25 14:00:50;;;;;;;5.20;3.65;;;;;;;13.41;43.14;101692.91;12794995;22;97412;-83
2023/01/25 14:05:56;;;;;;;5.47;3.85;;;;;;;14.23;42.04;101686.88;12794585;22;96688;-82
2023/01/25 14:10:59;;;;;;;6.15;3.92;;;;;;;14.48;41.92;101685.19;12795551;22;96667;-82
2023/01/25 14:16:10;;;;;;;4.32;3.38;;;;;;;15.28;38.84;101670.94;12793985;22;97217;-82
2023/01/25 14:21:17;;;;;;;4.82;3.78;;;;;;;15.55;38.68;101665.47;12794197;22;96582;-82
2023/01/25 14:26:23;;;;;;;3.97;3.40;;;;;;;16.27;37.03;101669.69;12793703;22;96699;-81
2023/01/25 14:31:33;;;;;;;5.30;4.20;;;;;;;15.99;36.83;101665.56;12794534;22;96652;-82
2023/01/25 14:36:36;;;;;;;4.88;3.60;;;;;;;15.99;37.44;101673.53;12794529;22;96708;-81
2023/01/25 14:41:42;;;;;;;4.07;2.97;;;;;;;15.62;37.20;101666.09;12794215;22;97472;-81
2023/01/25 14:47:28;;;;;;;4.43;3.35;;;;;;;16.80;35.71;101655.09;12794217;22;96678;-81
2023/01/25 14:52:32;;;;;;;4.47;3.88;;;;;;;16.31;36.33;101659.81;12794241;22;96586;-81
2023/01/25 14:57:38;;;;;;;4.68;3.70;;;;;;;15.78;35.78;101662.81;12794044;22;96880;-81
2023/01/25 15:02:47;;;;;;;4.78;3.92;;;;;;;15.60;36.27;101657.31;12795280;22;96729;-81
2023/01/25 15:07:52;;;;;;;4.82;3.60;;;;;;;15.77;36.44;101655.75;12793930;22;96662;-81
2023/01/25 15:12:58;;;;;;;4.15;3.50;;;;;;;15.50;36.19;101655.94;12794101;22;96646;-81
2023/01/25 15:18:43;;;;;;;4.72;3.25;;;;;;;15.17;36.13;101647.41;12792547;22;96725;-81
2023/01/25 15:23:48;;;;;;;3.90;2.65;;;;;;;14.89;36.58;101659.06;12794189;22;96669;-81
2023/01/25 15:28:53;;;;;;;3.10;2.70;;;;;;;14.82;36.94;101657.56;12794325;22;97135;-81
2023/01/25 15:33:58;;;;;;;;;;;;;;;14.75;36.88;101660.41;12794646;22;96717;-80
2023/01/25 15:39:02;;;;;;;4.32;3.55;;;;;;;14.97;37.36;101662.31;12794292;22;96743;-81
2023/01/25 15:44:05;;;;;;;5.50;4.05;;;;;;;14.67;37.51;101661.59;12793958;22;96625;-81
2023/01/25 15:49:16;;;;;;;4.82;3.70;;;;;;;14.69;37.77;101668.56;12793408;22;96920;-81
2023/01/25 15:54:20;;;;;;;5.05;3.88;;;;;;;15.16;36.99;101664.25;12795193;22;97093;-81
2023/01/25 15:59:23;;;;;;;5.38;4.00;;;;;;;14.80;37.72;101666.41;12793676;22;97406;-81
2023/01/25 16:04:28;;;;;;;6.80;4.25;;;;;;;14.26;38.03;101659.44;12793748;22;96952;-81
2023/01/25 16:09:32;;;;;;;5.38;3.97;;;;;;;14.20;38.47;101654.34;12792405;22;96619;-80
2023/01/25 16:14:35;;;;;;;5.05;3.80;;;;;;;13.98;38.60;101648.84;12793352;22;96833;-83
2023/01/25 16:19:39;;;;;;;4.88;4.13;;;;;;;14.15;38.67;101656.25;12792888;22;96648;-81
2023/01/25 16:24:43;;;;;;;5.18;4.43;;;;;;;14.46;38.55;101649.94;12792826;22;97010;-81
2023/01/25 16:29:46;;;;;;;5.80;4.50;;;;;;;14.15;39.02;101656.25;12796125;22;96671;-81
2023/01/25 16:34:51;;;;;;;6.88;5.20;;;;;;;13.88;39.32;101660.63;12795585;22;97062;-81
2023/01/25 16:39:54;;;;;;;7.38;5.60;;;;;;;13.64;39.99;101651.63;12795684;22;96583;-81
2023/01/25 16:44:58;;;;;;;7.57;5.45;;;;;;;13.20;41.29;101654.72;12797103;22;96733;-83
2023/01/25 16:50:02;;;;;;;6.93;4.70;;;;;;;13.10;41.37;101650.59;12795126;22;96677;-83
2023/01/25 16:55:06;;;;;;;5.93;4.60;;;;;;;13.11;41.96;101641.75;12795536;22;96730;-82
2023/01/25 17:00:13;;;;;;;7.78;5.05;;;;;;;12.89;42.40;101652.94;12794526;22;96729;-83
2023/01/25 17:05:17;;;;;;;8.30;4.70;;;;;;;12.90;42.67;101657.31;12795560;22;96542;-81
2023/01/25 17:10:21;;;;;;;7.82;5.93;;;;;;;12.52;44.01;101661.78;12795418;22;96610;-82
2023/01/25 17:15:24;;;;;;;9.70;6.93;;;;;;;12.04;45.14;101663.00;12795100;22;97109;-82
2023/01/25 17:20:29;;;;;;;10.10;7.10;;;;;;;11.61;46.68;101674.53;12795243;22;97287;-82
2023/01/25 17:25:34;;;;;;;10.52;6.80;;;;;;;11.37;47.60;101681.19;12795059;22;96705;-82
2023/01/25 17:30:40;;;;;;;10.35;7.30;;;;;;;11.18;47.73;101670.09;12795070;22;96660;-82
2023/01/25 17:35:45;;;;;;;90.43;53.13;;;;;;;11.05;48.16;101684.41;12796323;22;97000;-82
2023/01/25 17:40:48;;;;;;;160.65;93.85;;;;;;;10.77;50.17;101692.81;12795103;22;96659;-82
2023/01/25 17:45:51;;;;;;;44.03;27.02;;;;;;;10.50;50.85;101688.91;12794929;22;96679;-82
2023/01/25 17:51:03;;;;;;;17.45;11.77;;;;;;;10.16;52.72;101693.81;12793411;22;96556;-82
2023/01/25 17:56:07;;;;;;;20.25;12.60;;;;;;;9.95;53.63;101695.91;12794823;22;96652;-82
2023/01/25 18:01:12;;;;;;;22.07;14.13;;;;;;;9.87;54.10;101695.13;12794922;22;96592;-82
2023/01/25 18:06:20;;;;;;;25.35;15.18;;;;;;;9.67;54.32;101697.16;12794916;22;96785;-82
2023/01/25 18:11:26;;;;;;;24.23;15.93;;;;;;;9.41;55.69;101704.50;12795224;22;96911;-82
2023/01/25 18:16:31;;;;;;;28.80;17.10;;;;;;;9.34;56.39;101719.47;12794756;22;96737;-81
2023/01/25 18:21:37;;;;;;;27.35;17.05;;;;;;;9.13;57.13;101717.03;12794702;22;96556;-82
2023/01/25 18:26:41;;;;;;;28.00;17.67;;;;;;;8.72;59.25;101720.03;12795039;22;97409;-82
2023/01/25 18:31:45;;;;;;;27.65;18.30;;;;;;;8.64;59.57;101714.00;12794770;22;96622;-81
2023/01/25 18:36:49;;;;;;;21.73;15.52;;;;;;;8.78;57.63;101713.88;12794577;22;96629;-81
2023/01/25 18:41:52;;;;;;;25.57;16.17;;;;;;;8.65;58.74;101705.22;12793195;22;97116;-82
2023/01/25 18:46:56;;;;;;;27.55;16.75;;;;;;;8.35;61.08;101717.72;12794148;22;96826;-82
2023/01/25 18:52:01;;;;;;;27.08;17.45;;;;;;;8.15;61.95;101725.72;12793949;22;96644;-82
2023/01/25 18:57:14;;;;;;;27.55;17.95;;;;;;;8.04;63.19;101737.16;12794239;22;96630;-82
2023/01/25 19:02:18;;;;;;;24.98;16.23;;;;;;;8.09;62.40;101741.50;12794275;22;96599;-82
2023/01/25 19:07:23;;;;;;;23.63;15.38;;;;;;;8.16;61.54;101745.84;12794512;22;96975;-82
2023/01/25 19:12:26;;;;;;;27.77;17.13;;;;;;;8.07;61.42;101743.25;12794296;22;96689;-82
2023/01/25 19:17:31;;;;;;;27.48;17.02;;;;;;;8.12;61.00;101748.50;12792534;22;96926;-82
2023/01/25 19:22:36;;;;;;;24.48;15.40;;;;;;;7.96;62.66;101739.84;12789783;22;96642;-82
2023/01/25 19:27:39;;;;;;;24.27;15.17;;;;;;;7.91;62.18;101739.84;12789476;22;96751;-81
2023/01/25 19:32:42;;;;;;;28.27;17.02;;;;;;;7.63;63.66;101755.72;12788151;22;96649;-82
2023/01/25 19:37:47;;;;;;;24.85;16.73;;;;;;;7.39;65.71;101756.66;12789376;22;96816;-81
2023/01/25 19:42:50;;;;;;;23.60;15.40;;;;;;;7.40;65.48;101757.53;12789339;22;96771;-81
2023/01/25 19:47:53;;;;;;;28.77;16.13;;;;;;;7.44;64.46;101757.50;12788682;22;96640;-82
2023/01/25 19:53:00;;;;;;;24.25;16.70;;;;;;;7.32;66.11;101762.78;12788643;22;96559;-82
2023/01/25 19:58:03;;;;;;;26.00;17.00;;;;;;;7.38;65.17;101759.28;12789058;22;96621;-81
2023/01/25 20:03:06;;;;;;;24.75;15.98;;;;;;;7.33;65.31;101756.69;12789093;22;96972;-81
2023/01/25 20:08:20;;;;;;;23.20;15.48;;;;;;;7.34;64.84;101760.16;12790398;22;96879;-81
2023/01/25 20:13:23;;;;;;;24.63;16.33;;;;;;;7.16;65.96;101742.75;12789034;22;96853;-81
2023/01/25 20:18:26;;;;;;;28.70;17.27;;;;;;;7.03;66.17;101733.16;12736875;22;1278471;-82
2023/01/25 20:23:33;;;;;;;27.83;17.42;;;;;;;6.84;67.97;101741.91;12791563;22;96626;-82
2023/01/25 20:28:37;;;;;;;28.35;17.80;;;;;;;6.73;67.43;101754.13;12792894;22;96601;-82
2023/01/25 20:33:40;;;;;;;27.58;17.92;;;;;;;6.68;68.40;101755.84;12792595;22;96686;-82
2023/01/25 20:38:45;;;;;;;25.50;17.23;;;;;;;6.85;67.02;101772.47;12792793;22;96872;-81
2023/01/25 20:43:50;;;;;;;28.60;18.27;;;;;;;6.75;67.94;101774.16;12792867;22;97368;-81
2023/01/25 20:48:54;;;;;;;28.83;18.80;;;;;;;6.83;67.25;101772.44;12792396;22;96614;-81
2023/01/25 20:53:59;;;;;;;25.08;17.95;;;;;;;6.79;66.91;101781.16;12792292;22;96574;-82
2023/01/25 20:59:02;;;;;;;37.40;19.43;;;;;;;6.57;68.23;101784.63;12793343;22;96817;-81
2023/01/25 21:04:08;;;;;;;27.52;18.15;;;;;;;6.53;68.83;101793.34;12792590;22;96592;-81
2023/01/25 21:09:13;;;;;;;32.50;19.02;;;;;;;6.48;68.32;101783.72;12792635;22;96666;-81
2023/01/25 21:14:18;;;;;;;30.00;18.57;;;;;;;6.37;68.94;101790.66;12793251;22;96850;-82
2023/01/25 21:19:21;;;;;;;;;;;;;;;6.11;71.64;101789.75;12795315;22;96584;-81
2023/01/25 21:24:26;;;;;;;27.33;17.52;;;;;;;6.06;70.50;101787.13;12795297;22;96631;-81
2023/01/25 21:29:29;;;;;;;24.80;17.37;;;;;;;6.13;69.82;101798.44;12795120;22;96732;-81
2023/01/25 21:34:32;;;;;;;24.92;16.70;;;;;;;5.85;71.64;101800.09;12795619;22;96657;-81
2023/01/25 21:39:37;;;;;;;25.42;16.90;;;;;;;5.78;72.03;101790.50;12795143;22;96471;-80
2023/01/25 21:55:23;;;;;;;25.33;16.58;;;;;;;5.73;71.56;101797.44;12794735;22;96556;-81
2023/01/25 22:00:26;;;;;;;26.80;17.07;;;;;;;5.50;72.77;101794.72;12794932;22;96701;-81
2023/01/25 22:05:30;;;;;;;26.27;17.10;;;;;;;5.52;72.53;101786.88;12793515;22;96532;-81
2023/01/25 22:10:34;;;;;;;23.92;16.05;;;;;;;5.45;73.69;101777.31;12794621;22;96611;-81
2023/01/25 22:15:38;;;;;;;25.67;17.17;;;;;;;5.40;73.70;101784.19;12794507;22;96539;-81
2023/01/25 22:20:41;;;;;;;26.63;17.27;;;;;;;5.49;72.37;101785.16;12794410;22;96575;-80
2023/01/25 22:25:47;;;;;;;23.80;15.80;;;;;;;5.54;72.09;101787.75;12794106;22;96623;-80
2023/01/25 22:30:50;;;;;;;27.65;17.35;;;;;;;5.51;73.08;101774.69;12794604;22;96647;-81
2023/01/25 22:35:54;;;;;;;25.63;17.30;;;;;;;5.34;74.07;101774.63;12794251;22;97019;-81
2023/01/25 22:41:03;;;;;;;25.63;17.10;;;;;;;5.56;73.13;101773.88;12795587;22;96550;-81
2023/01/25 22:46:08;;;;;;;25.90;17.10;;;;;;;5.50;72.40;101765.13;12794513;22;97004;-81
2023/01/25 22:51:13;;;;;;;25.85;17.25;;;;;;;5.40;73.39;101764.22;12793867;22;96711;-81
2023/01/25 22:56:19;;;;;;;;;;;;;;;5.36;73.59;101748.53;12793497;22;96803;-81
2023/01/25 23:01:24;;;;;;;26.13;17.58;;;;;;;5.18;73.81;101751.03;12794795;22;97080;-81
2023/01/25 23:06:29;;;;;;;29.08;18.40;;;;;;;4.93;74.81;101755.19;12794233;22;96634;-81
2023/01/25 23:11:35;;;;;;;27.85;18.15;;;;;;;4.96;75.63;101742.22;12794098;22;96610;-81
2023/01/25 23:16:39;;;;;;;27.88;18.30;;;;;;;4.90;75.69;101749.97;12793877;22;97453;-80
2023/01/25 23:21:42;;;;;;;26.70;17.58;;;;;;;4.73;76.81;101754.19;12794083;22;96595;-81
2023/01/25 23:26:47;;;;;;;27.75;18.25;;;;;;;4.70;77.24;101745.47;12793891;22;96601;-81
2023/01/25 23:31:50;;;;;;;27.07;18.27;;;;;;;4.66;76.64;101744.56;12794938;22;96643;-81
2023/01/25 23:36:54;;;;;;;26.45;16.83;;;;;;;4.67;76.59;101737.63;12793261;22;96627;-81
2023/01/25 23:41:58;;;;;;;26.77;17.98;;;;;;;4.69;76.45;101728.09;12793870;22;96569;-81